createdAt,value
2022-07-27T00:02:10.787Z,21.45
2022-07-27T00:07:41.708Z,21.43
2022-07-27T00:13:13.143Z,21.37
2022-07-27T00:18:44.786Z,21.34
2022-07-27T00:24:15.752Z,21.30
2022-07-27T00:29:46.902Z,21.27
2022-07-27T00:35:18.457Z,21.27
2022-07-27T00:40:49.497Z,21.27
2022-07-27T00:46:21.602Z,21.27
2022-07-27T00:51:54.225Z,21.25
2022-07-27T00:57:25.031Z,21.25
2022-07-27T01:02:57.483Z,21.25
2022-07-27T01:08:29.170Z,21.22
2022-07-27T01:14:00.345Z,21.19
2022-07-27T01:19:31.340Z,21.16
2022-07-27T01:25:02.802Z,21.12
2022-07-27T01:30:35.743Z,21.09
2022-07-27T01:36:07.179Z,21.04
2022-07-27T01:41:38.315Z,21.03
2022-07-27T01:47:14.585Z,21.04
2022-07-27T01:52:46.349Z,21.05
2022-07-27T01:58:17.842Z,21.04
2022-07-27T02:03:48.886Z,21.02
2022-07-27T02:09:21.073Z,21.03
2022-07-27T02:14:52.208Z,21.01
2022-07-27T02:20:26.472Z,20.98
2022-07-27T02:25:57.855Z,21.00
2022-07-27T02:31:33.104Z,20.98
2022-07-27T02:37:04.410Z,20.92
2022-07-27T02:42:35.661Z,20.91
2022-07-27T02:48:08.406Z,20.87
2022-07-27T02:53:41.291Z,20.82
2022-07-27T02:59:12.551Z,20.79
2022-07-27T03:04:43.997Z,20.77
2022-07-27T03:10:16.729Z,20.69
2022-07-27T03:15:47.764Z,20.63
2022-07-27T03:21:19.419Z,20.57
2022-07-27T03:26:52.688Z,20.51
2022-07-27T03:32:23.660Z,20.46
2022-07-27T03:37:54.840Z,20.37
2022-07-27T03:43:25.916Z,20.31
2022-07-27T03:48:57.937Z,20.25
2022-07-27T03:54:29.162Z,20.21
2022-07-27T04:00:00.110Z,20.18
2022-07-27T04:05:31.288Z,20.14
2022-07-27T04:11:02.660Z,20.11
2022-07-27T04:16:36.274Z,20.07
2022-07-27T04:22:07.451Z,20.04
2022-07-27T04:27:39.050Z,20.03
2022-07-27T04:33:10.317Z,20.04
2022-07-27T04:38:41.473Z,20.01
2022-07-27T04:44:12.642Z,20.02
2022-07-27T04:49:43.935Z,20.11
2022-07-27T04:55:14.895Z,20.13
2022-07-27T05:00:46.148Z,20.15
2022-07-27T05:06:17.661Z,20.15
2022-07-27T05:11:50.699Z,20.14
2022-07-27T05:17:23.327Z,20.18
2022-07-27T05:22:54.683Z,20.24
2022-07-27T05:28:25.843Z,20.24
2022-07-27T05:33:58.494Z,20.26
2022-07-27T05:39:30.316Z,20.23
2022-07-27T05:45:01.644Z,20.25
2022-07-27T05:50:32.574Z,20.30
2022-07-27T05:56:04.067Z,20.37
2022-07-27T06:01:35.405Z,20.43
2022-07-27T06:07:25.230Z,20.50
2022-07-27T06:12:56.582Z,20.37
2022-07-27T06:18:27.694Z,20.23
2022-07-27T06:23:58.903Z,20.25
2022-07-27T06:29:30.019Z,20.30
2022-07-27T06:35:02.416Z,20.28
2022-07-27T06:40:33.611Z,20.30
2022-07-27T06:46:07.339Z,20.32
2022-07-27T06:51:39.047Z,20.47
2022-07-27T06:57:10.875Z,20.67
2022-07-27T07:25:04.464Z,22.47
2022-07-27T07:30:35.717Z,22.68
2022-07-27T07:36:13.615Z,22.90
2022-07-27T07:41:46.103Z,23.12
2022-07-27T07:47:17.286Z,23.28
2022-07-27T07:52:50.137Z,23.35
2022-07-27T07:58:21.364Z,23.61
2022-07-27T08:03:52.941Z,23.88
2022-07-27T08:09:27.024Z,24.03
2022-07-27T08:14:58.173Z,24.20
2022-07-27T08:20:29.586Z,24.42
2022-07-27T08:26:05.602Z,24.63
2022-07-27T08:31:52.927Z,24.79
2022-07-27T08:37:24.926Z,24.80
2022-07-27T08:42:56.050Z,24.73
2022-07-27T08:48:29.488Z,24.66
2022-07-27T08:54:01.072Z,24.62
2022-07-27T08:59:32.260Z,24.59
2022-07-27T09:05:05.808Z,24.55
2022-07-27T09:10:38.528Z,24.50
2022-07-27T09:16:19.778Z,24.46
2022-07-27T09:21:53.031Z,24.42
2022-07-27T09:27:30.843Z,24.38
2022-07-27T09:33:05.736Z,24.46
2022-07-27T09:38:36.931Z,24.67
2022-07-27T09:50:21.452Z,24.77
2022-07-27T09:56:07.806Z,24.27
2022-07-27T10:01:47.657Z,24.16
2022-07-27T10:07:20.620Z,24.35
2022-07-27T10:12:55.207Z,24.33
2022-07-27T10:19:08.743Z,24.22
2022-07-27T10:24:40.023Z,24.09
2022-07-27T10:30:11.516Z,23.96
2022-07-27T10:35:42.917Z,23.87
2022-07-27T10:41:21.496Z,23.81
2022-07-27T10:46:54.014Z,23.79
2022-07-27T10:52:41.909Z,23.83
2022-07-27T10:58:13.128Z,23.96
2022-07-27T11:03:49.675Z,24.08
2022-07-27T11:10:02.612Z,24.25
2022-07-27T11:15:12.139Z,24.45
2022-07-27T11:20:43.524Z,24.64
2022-07-27T11:26:15.183Z,24.83
2022-07-27T11:32:02.971Z,24.89
2022-07-27T11:37:36.485Z,24.87
2022-07-27T11:43:15.710Z,24.95
2022-07-27T11:49:08.653Z,25.02
2022-07-27T11:54:41.933Z,25.06
2022-07-27T12:00:13.603Z,25.08
2022-07-27T12:05:51.624Z,25.14
2022-07-27T12:11:34.199Z,25.14
2022-07-27T12:17:15.101Z,25.08
2022-07-27T12:22:48.188Z,24.95
2022-07-27T12:28:25.761Z,24.78
2022-07-27T12:34:05.675Z,24.59
2022-07-27T12:39:37.441Z,24.33
2022-07-27T12:45:20.617Z,24.03
2022-07-27T12:51:24.111Z,23.84
2022-07-27T12:56:55.444Z,23.69
2022-07-27T13:02:26.948Z,23.57
2022-07-27T13:07:59.271Z,23.46
2022-07-27T13:13:31.070Z,23.34
2022-07-27T13:19:02.410Z,23.24
2022-07-27T13:24:33.797Z,23.19
2022-07-27T13:30:07.325Z,23.21
2022-07-27T13:35:39.459Z,23.34
2022-07-27T13:41:11.079Z,23.51
2022-07-27T13:46:45.742Z,23.64
2022-07-27T13:52:20.628Z,23.76
2022-07-27T13:57:52.107Z,23.86
2022-07-27T14:03:23.412Z,23.92
2022-07-27T14:08:55.631Z,23.84
2022-07-27T14:14:27.157Z,23.83
2022-07-27T14:19:58.461Z,23.87
2022-07-27T14:25:30.513Z,23.86
2022-07-27T14:31:02.740Z,23.79
2022-07-27T14:36:34.410Z,23.78
2022-07-27T14:42:05.642Z,23.70
2022-07-27T14:47:36.799Z,23.70
2022-07-27T14:53:07.844Z,23.72
2022-07-27T14:58:38.717Z,23.68
2022-07-27T15:04:09.592Z,23.64
2022-07-27T15:09:40.534Z,23.64
2022-07-27T15:15:11.596Z,23.66
2022-07-27T15:20:43.142Z,23.63
2022-07-27T15:26:14.357Z,23.60
2022-07-27T15:31:45.886Z,23.60
2022-07-27T15:37:17.261Z,23.60
2022-07-27T15:42:48.581Z,23.58
2022-07-27T15:48:20.532Z,23.55
2022-07-27T15:53:51.824Z,23.29
2022-07-27T15:59:28.324Z,23.07
2022-07-27T16:05:04.060Z,23.12
2022-07-27T16:10:40.422Z,23.13
2022-07-27T16:16:30.253Z,23.15
2022-07-27T16:22:01.620Z,23.14
2022-07-27T16:27:32.822Z,22.91
2022-07-27T16:33:04.184Z,22.18
2022-07-27T16:38:35.481Z,21.70
2022-07-27T16:44:06.739Z,21.45
2022-07-27T16:49:37.519Z,21.23
2022-07-27T16:55:09.085Z,21.12
2022-07-27T17:00:40.605Z,21.03
2022-07-27T17:06:11.958Z,20.99
2022-07-27T17:11:43.314Z,20.80
2022-07-27T17:17:15.199Z,20.62
2022-07-27T17:22:46.649Z,20.51
2022-07-27T17:28:17.805Z,20.39
2022-07-27T17:33:49.803Z,20.32
2022-07-27T17:39:21.027Z,20.23
2022-07-27T17:44:54.762Z,20.13
2022-07-27T17:50:26.425Z,20.12
2022-07-27T17:55:57.661Z,20.09
2022-07-27T18:01:31.851Z,19.96
2022-07-27T18:07:19.185Z,20.10
2022-07-27T18:12:50.072Z,20.48
2022-07-27T18:18:26.037Z,20.39
2022-07-27T18:23:57.295Z,20.09
2022-07-27T18:29:28.762Z,19.86
2022-07-27T18:35:00.437Z,19.62
2022-07-27T18:40:31.849Z,19.42
2022-07-27T18:46:03.140Z,19.59
2022-07-27T18:51:34.189Z,19.92
2022-07-27T18:57:08.287Z,20.07
2022-07-27T19:02:39.556Z,20.15
2022-07-27T19:08:13.096Z,20.20
2022-07-27T19:13:45.030Z,19.82
2022-07-27T19:19:22.247Z,19.26
2022-07-27T19:24:55.101Z,18.83
2022-07-27T19:30:26.145Z,18.75
2022-07-27T19:35:58.377Z,19.10
2022-07-27T19:41:29.656Z,19.37
2022-07-27T19:47:00.938Z,19.53
2022-07-27T19:52:33.161Z,19.63
2022-07-27T19:58:04.356Z,19.63
2022-07-27T20:03:52.115Z,19.59
2022-07-27T20:09:28.972Z,19.54
2022-07-27T20:15:00.579Z,19.49
2022-07-27T20:20:31.536Z,19.44
2022-07-27T20:26:02.717Z,19.39
2022-07-27T20:31:34.449Z,19.36
2022-07-27T20:37:05.624Z,19.30
2022-07-27T20:42:37.402Z,19.22
2022-07-27T20:48:12.154Z,19.16
2022-07-27T20:53:43.383Z,19.05
2022-07-27T20:59:16.476Z,18.99
2022-07-27T21:04:48.188Z,18.93
2022-07-27T21:10:19.141Z,18.88
2022-07-27T21:15:50.320Z,18.84
2022-07-27T21:21:27.000Z,18.82
2022-07-27T21:27:04.375Z,18.74
2022-07-27T21:32:36.329Z,18.70
2022-07-27T21:38:07.262Z,18.64
2022-07-27T21:43:38.309Z,18.56
2022-07-27T21:49:10.608Z,18.53
2022-07-27T21:54:41.871Z,18.47
2022-07-27T22:00:14.229Z,18.42
2022-07-27T22:05:45.065Z,18.35
2022-07-27T22:11:16.141Z,18.32
2022-07-27T22:16:47.345Z,18.26
2022-07-27T22:22:18.910Z,18.17
2022-07-27T22:27:50.752Z,18.12
2022-07-27T22:33:21.918Z,18.11
2022-07-27T22:39:18.476Z,18.03
2022-07-27T22:44:49.465Z,17.96
2022-07-27T22:50:21.982Z,17.98
2022-07-27T22:55:54.053Z,18.00
2022-07-27T23:01:36.181Z,17.95
2022-07-27T23:07:16.547Z,17.91
2022-07-27T23:12:47.508Z,17.87
2022-07-27T23:18:18.658Z,17.81
2022-07-27T23:23:54.121Z,17.76
2022-07-27T23:29:26.029Z,17.68
2022-07-27T23:34:57.226Z,17.65
2022-07-27T23:40:28.296Z,17.62
2022-07-27T23:45:59.463Z,17.57
2022-07-27T23:51:30.719Z,17.52
2022-07-27T23:57:01.709Z,17.46
